sensor_id;sensor_type;location;lat;lon;timestamp;pressure;altitude;pressure_sealevel;temperature;humidity
33781;BME280;20097;50.832;19.100;2022-07-23T00:03:25;98324.59;;;19.18;100.00
33781;BME280;20097;50.832;19.100;2022-07-23T00:08:31;98328.63;;;19.09;100.00
33781;BME280;20097;50.832;19.100;2022-07-23T00:13:35;98328.41;;;19.10;100.00
33781;BME280;20097;50.832;19.100;2022-07-23T00:18:41;98331.59;;;19.01;100.00
33781;BME280;20097;50.832;19.100;2022-07-23T00:23:50;98330.19;;;18.98;100.00
33781;BME280;20097;50.832;19.100;2022-07-23T00:29:03;98337.19;;;18.93;100.00
33781;BME280;20097;50.832;19.100;2022-07-23T00:34:09;98346.25;;;18.85;100.00
33781;BME280;20097;50.832;19.100;2022-07-23T00:39:23;98342.69;;;18.80;100.00
33781;BME280;20097;50.832;19.100;2022-07-23T00:44:30;98337.56;;;18.67;100.00
33781;BME280;20097;50.832;19.100;2022-07-23T00:49:40;98316.28;;;18.62;100.00
33781;BME280;20097;50.832;19.100;2022-07-23T00:54:45;98315.09;;;18.58;100.00
33781;BME280;20097;50.832;19.100;2022-07-23T00:59:50;98318.66;;;18.52;100.00
33781;BME280;20097;50.832;19.100;2022-07-23T01:04:54;98332.97;;;18.44;100.00
33781;BME280;20097;50.832;19.100;2022-07-23T01:10:07;98329.75;;;18.42;100.00
33781;BME280;20097;50.832;19.100;2022-07-23T01:15:32;98326.13;;;18.37;100.00
33781;BME280;20097;50.832;19.100;2022-07-23T01:20:38;98322.44;;;18.38;100.00
33781;BME280;20097;50.832;19.100;2022-07-23T01:25:52;98330.53;;;18.25;100.00
33781;BME280;20097;50.832;19.100;2022-07-23T01:31:03;98321.13;;;18.29;100.00
33781;BME280;20097;50.832;19.100;2022-07-23T01:36:10;98319.38;;;18.23;100.00
33781;BME280;20097;50.832;19.100;2022-07-23T01:41:22;98319.47;;;18.16;100.00
33781;BME280;20097;50.832;19.100;2022-07-23T01:46:30;98332.16;;;18.08;100.00
33781;BME280;20097;50.832;19.100;2022-07-23T01:51:40;98332.53;;;18.11;100.00
33781;BME280;20097;50.832;19.100;2022-07-23T01:57:16;98338.53;;;18.00;100.00
33781;BME280;20097;50.832;19.100;2022-07-23T02:02:20;98325.41;;;17.94;100.00
33781;BME280;20097;50.832;19.100;2022-07-23T02:07:25;98335.81;;;17.89;100.00
33781;BME280;20097;50.832;19.100;2022-07-23T02:12:36;98326.34;;;17.81;100.00
33781;BME280;20097;50.832;19.100;2022-07-23T02:17:40;98326.69;;;17.66;100.00
33781;BME280;20097;50.832;19.100;2022-07-23T02:22:44;98327.81;;;17.77;100.00
33781;BME280;20097;50.832;19.100;2022-07-23T02:27:53;98325.81;;;17.72;100.00
33781;BME280;20097;50.832;19.100;2022-07-23T02:32:57;98338.06;;;17.67;100.00
33781;BME280;20097;50.832;19.100;2022-07-23T02:38:01;98334.66;;;17.60;100.00
33781;BME280;20097;50.832;19.100;2022-07-23T02:43:08;98335.03;;;17.63;100.00
33781;BME280;20097;50.832;19.100;2022-07-23T02:48:14;98319.47;;;17.55;100.00
33781;BME280;20097;50.832;19.100;2022-07-23T02:53:20;98323.00;;;17.49;100.00
33781;BME280;20097;50.832;19.100;2022-07-23T02:58:26;98321.69;;;17.58;100.00
33781;BME280;20097;50.832;19.100;2022-07-23T03:03:30;98324.53;;;17.57;100.00
33781;BME280;20097;50.832;19.100;2022-07-23T03:08:36;98322.50;;;17.59;100.00
33781;BME280;20097;50.832;19.100;2022-07-23T03:13:41;98323.31;;;17.59;100.00
33781;BME280;20097;50.832;19.100;2022-07-23T03:18:46;98312.94;;;17.58;100.00
33781;BME280;20097;50.832;19.100;2022-07-23T03:23:50;98315.75;;;17.63;100.00
33781;BME280;20097;50.832;19.100;2022-07-23T03:28:56;98322.06;;;17.62;100.00
33781;BME280;20097;50.832;19.100;2022-07-23T03:34:04;98314.00;;;17.75;100.00
33781;BME280;20097;50.832;19.100;2022-07-23T03:39:23;98314.09;;;17.87;100.00
33781;BME280;20097;50.832;19.100;2022-07-23T03:44:29;98320.69;;;17.96;100.00
33781;BME280;20097;50.832;19.100;2022-07-23T03:49:38;98302.50;;;18.06;100.00
33781;BME280;20097;50.832;19.100;2022-07-23T03:54:44;98298.63;;;18.26;100.00
33781;BME280;20097;50.832;19.100;2022-07-23T03:59:53;98302.50;;;18.42;100.00
33781;BME280;20097;50.832;19.100;2022-07-23T04:05:04;98309.59;;;18.59;100.00
33781;BME280;20097;50.832;19.100;2022-07-23T04:10:09;98305.53;;;18.75;100.00
33781;BME280;20097;50.832;19.100;2022-07-23T04:15:14;98309.84;;;18.99;100.00
33781;BME280;20097;50.832;19.100;2022-07-23T04:20:21;98326.09;;;19.14;100.00
33781;BME280;20097;50.832;19.100;2022-07-23T04:25:32;98327.72;;;19.27;100.00
33781;BME280;20097;50.832;19.100;2022-07-23T04:30:38;98313.03;;;19.42;100.00
33781;BME280;20097;50.832;19.100;2022-07-23T04:35:44;98315.59;;;19.60;100.00
33781;BME280;20097;50.832;19.100;2022-07-23T04:40:53;98306.47;;;19.79;100.00
33781;BME280;20097;50.832;19.100;2022-07-23T04:46:02;98297.84;;;19.95;100.00
33781;BME280;20097;50.832;19.100;2022-07-23T04:51:20;98289.16;;;20.11;100.00
33781;BME280;20097;50.832;19.100;2022-07-23T04:56:24;98290.97;;;20.34;100.00
33781;BME280;20097;50.832;19.100;2022-07-23T05:01:30;98294.91;;;20.60;100.00
33781;BME280;20097;50.832;19.100;2022-07-23T05:06:34;98299.06;;;20.84;100.00
33781;BME280;20097;50.832;19.100;2022-07-23T05:11:39;98310.63;;;21.06;100.00
33781;BME280;20097;50.832;19.100;2022-07-23T05:16:48;98311.19;;;21.24;100.00
33781;BME280;20097;50.832;19.100;2022-07-23T05:21:57;98312.97;;;21.35;100.00
33781;BME280;20097;50.832;19.100;2022-07-23T05:27:01;98309.09;;;21.59;100.00
33781;BME280;20097;50.832;19.100;2022-07-23T05:32:07;98293.78;;;21.83;100.00
33781;BME280;20097;50.832;19.100;2022-07-23T05:37:15;98301.03;;;22.09;100.00
33781;BME280;20097;50.832;19.100;2022-07-23T05:42:20;98281.13;;;22.33;100.00
33781;BME280;20097;50.832;19.100;2022-07-23T05:47:29;98284.94;;;22.64;100.00
33781;BME280;20097;50.832;19.100;2022-07-23T05:52:46;98278.59;;;22.96;100.00
33781;BME280;20097;50.832;19.100;2022-07-23T05:58:05;98269.84;;;23.28;100.00
33781;BME280;20097;50.832;19.100;2022-07-23T06:03:11;98271.09;;;23.57;100.00
33781;BME280;20097;50.832;19.100;2022-07-23T06:08:16;98276.06;;;23.85;100.00
33781;BME280;20097;50.832;19.100;2022-07-23T06:13:21;98263.41;;;24.07;100.00
33781;BME280;20097;50.832;19.100;2022-07-23T06:18:30;98262.19;;;24.34;98.57
33781;BME280;20097;50.832;19.100;2022-07-23T06:23:34;98262.81;;;24.67;96.58
33781;BME280;20097;50.832;19.100;2022-07-23T06:28:38;98255.13;;;25.05;94.11
33781;BME280;20097;50.832;19.100;2022-07-23T06:33:47;98252.97;;;25.47;92.03
33781;BME280;20097;50.832;19.100;2022-07-23T06:38:51;98251.84;;;25.84;87.09
33781;BME280;20097;50.832;19.100;2022-07-23T06:43:56;98255.47;;;26.23;84.62
33781;BME280;20097;50.832;19.100;2022-07-23T06:49:02;98254.50;;;26.52;83.70
33781;BME280;20097;50.832;19.100;2022-07-23T06:54:10;98248.69;;;26.84;80.22
33781;BME280;20097;50.832;19.100;2022-07-23T06:59:14;98241.03;;;27.06;78.37
33781;BME280;20097;50.832;19.100;2022-07-23T07:04:22;98247.41;;;27.10;77.04
33781;BME280;20097;50.832;19.100;2022-07-23T07:09:27;98239.97;;;27.36;75.80
33781;BME280;20097;50.832;19.100;2022-07-23T07:14:31;98250.75;;;27.59;72.19
33781;BME280;20097;50.832;19.100;2022-07-23T07:19:37;98246.25;;;27.78;71.91
33781;BME280;20097;50.832;19.100;2022-07-23T07:24:41;98256.84;;;27.93;67.28
33781;BME280;20097;50.832;19.100;2022-07-23T07:29:45;98273.78;;;28.12;65.23
33781;BME280;20097;50.832;19.100;2022-07-23T07:34:51;98259.81;;;28.34;63.07
33781;BME280;20097;50.832;19.100;2022-07-23T07:39:55;98251.88;;;28.48;61.76
33781;BME280;20097;50.832;19.100;2022-07-23T07:44:59;98255.59;;;28.52;60.37
33781;BME280;20097;50.832;19.100;2022-07-23T07:50:06;98257.47;;;28.70;59.13
33781;BME280;20097;50.832;19.100;2022-07-23T07:55:14;98262.56;;;28.90;57.49
33781;BME280;20097;50.832;19.100;2022-07-23T08:00:22;98266.03;;;29.09;56.91
33781;BME280;20097;50.832;19.100;2022-07-23T08:05:29;98270.50;;;29.32;56.21
33781;BME280;20097;50.832;19.100;2022-07-23T08:10:34;98278.72;;;29.54;55.34
33781;BME280;20097;50.832;19.100;2022-07-23T08:15:38;98258.03;;;29.68;53.08
33781;BME280;20097;50.832;19.100;2022-07-23T08:20:44;98266.69;;;29.65;50.23
33781;BME280;20097;50.832;19.100;2022-07-23T08:25:50;98261.72;;;29.72;47.58
33781;BME280;20097;50.832;19.100;2022-07-23T08:30:54;98261.34;;;29.92;47.83
33781;BME280;20097;50.832;19.100;2022-07-23T08:36:00;98255.28;;;30.00;49.42
33781;BME280;20097;50.832;19.100;2022-07-23T08:41:07;98238.19;;;30.18;50.08
33781;BME280;20097;50.832;19.100;2022-07-23T08:46:11;98217.16;;;30.34;49.31
33781;BME280;20097;50.832;19.100;2022-07-23T08:51:18;98221.50;;;30.43;48.66
33781;BME280;20097;50.832;19.100;2022-07-23T08:56:22;98223.47;;;30.51;46.59
33781;BME280;20097;50.832;19.100;2022-07-23T09:01:27;98218.72;;;30.48;47.79
33781;BME280;20097;50.832;19.100;2022-07-23T09:06:32;98221.91;;;30.72;49.06
33781;BME280;20097;50.832;19.100;2022-07-23T09:11:36;98229.97;;;30.86;47.66
33781;BME280;20097;50.832;19.100;2022-07-23T09:16:41;98216.56;;;30.95;45.62
33781;BME280;20097;50.832;19.100;2022-07-23T09:21:48;98218.16;;;30.96;44.76
33781;BME280;20097;50.832;19.100;2022-07-23T09:26:52;98220.97;;;31.13;46.37
33781;BME280;20097;50.832;19.100;2022-07-23T09:31:59;98218.81;;;31.23;44.63
33781;BME280;20097;50.832;19.100;2022-07-23T09:37:10;98223.16;;;31.33;44.50
33781;BME280;20097;50.832;19.100;2022-07-23T09:42:17;98237.09;;;31.57;44.03
33781;BME280;20097;50.832;19.100;2022-07-23T09:47:22;98231.47;;;31.75;43.25
33781;BME280;20097;50.832;19.100;2022-07-23T09:52:34;98229.34;;;31.94;42.11
33781;BME280;20097;50.832;19.100;2022-07-23T09:57:39;98225.25;;;32.14;42.87
33781;BME280;20097;50.832;19.100;2022-07-23T10:02:44;98232.34;;;32.41;40.76
33781;BME280;20097;50.832;19.100;2022-07-23T10:08:23;98223.94;;;32.51;42.09
33781;BME280;20097;50.832;19.100;2022-07-23T10:13:46;98234.09;;;32.71;39.55
33781;BME280;20097;50.832;19.100;2022-07-23T10:19:34;98221.38;;;32.54;39.47
33781;BME280;20097;50.832;19.100;2022-07-23T10:24:53;98211.19;;;32.51;40.18
33781;BME280;20097;50.832;19.100;2022-07-23T10:30:02;98216.59;;;32.43;38.15
33781;BME280;20097;50.832;19.100;2022-07-23T10:35:18;98216.78;;;32.46;37.82
33781;BME280;20097;50.832;19.100;2022-07-23T10:40:28;98210.72;;;32.41;38.29
33781;BME280;20097;50.832;19.100;2022-07-23T10:45:35;98209.13;;;32.48;39.28
33781;BME280;20097;50.832;19.100;2022-07-23T10:50:40;98198.78;;;32.33;39.80
33781;BME280;20097;50.832;19.100;2022-07-23T10:55:49;98197.53;;;32.39;39.87
33781;BME280;20097;50.832;19.100;2022-07-23T11:00:53;98198.75;;;33.10;39.05
33781;BME280;20097;50.832;19.100;2022-07-23T11:05:57;98205.66;;;33.54;38.10
33781;BME280;20097;50.832;19.100;2022-07-23T11:11:10;98201.59;;;33.77;37.44
33781;BME280;20097;50.832;19.100;2022-07-23T11:16:25;98200.56;;;33.90;37.20
33781;BME280;20097;50.832;19.100;2022-07-23T11:21:51;98194.94;;;34.03;36.97
33781;BME280;20097;50.832;19.100;2022-07-23T11:27:01;98193.84;;;34.25;36.71
33781;BME280;20097;50.832;19.100;2022-07-23T11:32:11;98186.56;;;34.46;35.85
33781;BME280;20097;50.832;19.100;2022-07-23T11:37:36;98188.53;;;34.57;36.59
33781;BME280;20097;50.832;19.100;2022-07-23T11:42:52;98192.25;;;34.24;36.75
33781;BME280;20097;50.832;19.100;2022-07-23T11:47:56;98180.81;;;33.89;35.86
33781;BME280;20097;50.832;19.100;2022-07-23T11:53:00;98175.13;;;33.91;35.77
33781;BME280;20097;50.832;19.100;2022-07-23T11:58:06;98187.19;;;33.56;34.58
33781;BME280;20097;50.832;19.100;2022-07-23T12:03:11;98168.50;;;33.25;35.81
33781;BME280;20097;50.832;19.100;2022-07-23T12:08:15;98155.13;;;33.28;36.07
33781;BME280;20097;50.832;19.100;2022-07-23T12:13:21;98157.75;;;32.99;35.84
33781;BME280;20097;50.832;19.100;2022-07-23T12:18:26;98144.91;;;32.54;37.80
33781;BME280;20097;50.832;19.100;2022-07-23T12:23:32;98130.59;;;32.62;39.35
33781;BME280;20097;50.832;19.100;2022-07-23T12:28:37;98124.06;;;32.37;38.36
33781;BME280;20097;50.832;19.100;2022-07-23T12:33:43;98120.25;;;32.21;40.34
33781;BME280;20097;50.832;19.100;2022-07-23T12:38:48;98122.22;;;31.81;39.69
33781;BME280;20097;50.832;19.100;2022-07-23T12:43:54;98122.97;;;31.56;39.91
33781;BME280;20097;50.832;19.100;2022-07-23T12:48:58;98098.31;;;31.32;43.07
33781;BME280;20097;50.832;19.100;2022-07-23T12:54:04;98107.59;;;31.26;42.92
33781;BME280;20097;50.832;19.100;2022-07-23T12:59:12;98129.72;;;31.06;44.73
33781;BME280;20097;50.832;19.100;2022-07-23T13:04:21;98133.56;;;31.14;46.78
33781;BME280;20097;50.832;19.100;2022-07-23T13:09:27;98134.38;;;30.84;46.19
33781;BME280;20097;50.832;19.100;2022-07-23T13:14:36;98122.59;;;30.57;45.39
33781;BME280;20097;50.832;19.100;2022-07-23T13:19:41;98115.19;;;30.41;52.31
33781;BME280;20097;50.832;19.100;2022-07-23T13:24:45;98126.19;;;30.17;47.59
33781;BME280;20097;50.832;19.100;2022-07-23T13:29:51;98138.81;;;29.81;49.36
33781;BME280;20097;50.832;19.100;2022-07-23T13:34:55;98158.75;;;29.39;50.27
33781;BME280;20097;50.832;19.100;2022-07-23T13:39:59;98212.97;;;28.64;54.11
33781;BME280;20097;50.832;19.100;2022-07-23T13:45:20;98303.47;;;27.02;73.06
33781;BME280;20097;50.832;19.100;2022-07-23T13:50:24;98239.88;;;25.26;100.00
33781;BME280;20097;50.832;19.100;2022-07-23T13:55:35;98215.72;;;24.20;100.00
33781;BME280;20097;50.832;19.100;2022-07-23T14:00:43;98257.25;;;23.55;100.00
33781;BME280;20097;50.832;19.100;2022-07-23T14:05:56;98238.25;;;23.41;100.00
33781;BME280;20097;50.832;19.100;2022-07-23T14:11:00;98249.19;;;23.45;100.00
33781;BME280;20097;50.832;19.100;2022-07-23T14:16:10;98256.22;;;23.61;100.00
33781;BME280;20097;50.832;19.100;2022-07-23T14:21:14;98258.03;;;23.97;100.00
33781;BME280;20097;50.832;19.100;2022-07-23T14:26:19;98257.53;;;24.00;100.00
33781;BME280;20097;50.832;19.100;2022-07-23T14:31:25;98233.84;;;24.18;100.00
33781;BME280;20097;50.832;19.100;2022-07-23T14:36:29;98229.94;;;24.56;100.00
33781;BME280;20097;50.832;19.100;2022-07-23T14:41:34;98235.00;;;24.58;100.00
33781;BME280;20097;50.832;19.100;2022-07-23T14:46:41;98227.34;;;24.91;100.00
33781;BME280;20097;50.832;19.100;2022-07-23T14:51:46;98202.50;;;24.91;100.00
33781;BME280;20097;50.832;19.100;2022-07-23T14:56:51;98182.47;;;25.03;100.00
33781;BME280;20097;50.832;19.100;2022-07-23T15:01:57;98178.47;;;24.91;100.00
33781;BME280;20097;50.832;19.100;2022-07-23T15:07:02;98185.13;;;24.93;100.00
33781;BME280;20097;50.832;19.100;2022-07-23T15:12:07;98186.25;;;25.96;100.00
33781;BME280;20097;50.832;19.100;2022-07-23T15:17:15;98169.03;;;26.17;100.00
33781;BME280;20097;50.832;19.100;2022-07-23T15:22:20;98159.16;;;25.49;100.00
33781;BME280;20097;50.832;19.100;2022-07-23T15:27:26;98166.44;;;24.98;100.00
33781;BME280;20097;50.832;19.100;2022-07-23T15:32:34;98193.16;;;25.08;100.00
33781;BME280;20097;50.832;19.100;2022-07-23T15:37:38;98183.19;;;25.64;100.00
33781;BME280;20097;50.832;19.100;2022-07-23T15:42:46;98153.06;;;25.28;100.00
33781;BME280;20097;50.832;19.100;2022-07-23T15:47:52;98131.41;;;25.25;100.00
33781;BME280;20097;50.832;19.100;2022-07-23T15:52:57;98121.59;;;24.85;100.00
33781;BME280;20097;50.832;19.100;2022-07-23T15:58:01;98126.66;;;24.97;100.00
33781;BME280;20097;50.832;19.100;2022-07-23T16:03:09;98119.94;;;25.14;100.00
33781;BME280;20097;50.832;19.100;2022-07-23T16:08:14;98118.84;;;25.30;100.00
33781;BME280;20097;50.832;19.100;2022-07-23T16:13:18;98110.81;;;25.35;100.00
33781;BME280;20097;50.832;19.100;2022-07-23T16:18:23;98108.41;;;25.44;100.00
33781;BME280;20097;50.832;19.100;2022-07-23T16:23:28;98103.63;;;25.36;100.00
33781;BME280;20097;50.832;19.100;2022-07-23T16:28:33;98121.00;;;25.28;100.00
33781;BME280;20097;50.832;19.100;2022-07-23T16:33:38;98139.44;;;25.20;100.00
33781;BME280;20097;50.832;19.100;2022-07-23T16:38:43;98132.78;;;25.12;100.00
33781;BME280;20097;50.832;19.100;2022-07-23T16:43:47;98137.59;;;25.00;100.00
33781;BME280;20097;50.832;19.100;2022-07-23T16:48:52;98134.94;;;24.80;100.00
33781;BME280;20097;50.832;19.100;2022-07-23T16:53:57;98128.28;;;24.73;100.00
33781;BME280;20097;50.832;19.100;2022-07-23T16:59:01;98139.78;;;24.73;100.00
33781;BME280;20097;50.832;19.100;2022-07-23T17:04:08;98148.84;;;24.62;100.00
33781;BME280;20097;50.832;19.100;2022-07-23T17:09:12;98154.66;;;24.54;100.00
33781;BME280;20097;50.832;19.100;2022-07-23T17:14:17;98168.31;;;24.43;100.00
33781;BME280;20097;50.832;19.100;2022-07-23T17:19:23;98173.63;;;24.38;100.00
33781;BME280;20097;50.832;19.100;2022-07-23T17:24:27;98179.97;;;24.26;100.00
33781;BME280;20097;50.832;19.100;2022-07-23T17:29:31;98217.47;;;23.95;100.00
33781;BME280;20097;50.832;19.100;2022-07-23T17:34:37;98221.84;;;23.59;100.00
33781;BME280;20097;50.832;19.100;2022-07-23T17:39:41;98231.56;;;23.39;100.00
33781;BME280;20097;50.832;19.100;2022-07-23T17:44:45;98227.13;;;23.18;100.00
33781;BME280;20097;50.832;19.100;2022-07-23T17:49:51;98221.19;;;23.05;100.00
33781;BME280;20097;50.832;19.100;2022-07-23T17:54:55;98228.53;;;22.93;100.00
33781;BME280;20097;50.832;19.100;2022-07-23T17:59:59;98229.56;;;22.87;100.00
33781;BME280;20097;50.832;19.100;2022-07-23T18:05:09;98238.25;;;22.78;100.00
33781;BME280;20097;50.832;19.100;2022-07-23T18:10:14;98238.69;;;22.65;100.00
33781;BME280;20097;50.832;19.100;2022-07-23T18:15:18;98252.94;;;22.54;100.00
33781;BME280;20097;50.832;19.100;2022-07-23T18:20:24;98252.47;;;22.40;100.00
33781;BME280;20097;50.832;19.100;2022-07-23T18:25:29;98249.22;;;22.33;100.00
33781;BME280;20097;50.832;19.100;2022-07-23T18:30:34;98259.72;;;22.23;100.00
33781;BME280;20097;50.832;19.100;2022-07-23T18:35:39;98274.03;;;22.17;100.00
33781;BME280;20097;50.832;19.100;2022-07-23T18:40:45;98286.47;;;22.12;100.00
33781;BME280;20097;50.832;19.100;2022-07-23T18:45:50;98295.41;;;22.06;100.00
33781;BME280;20097;50.832;19.100;2022-07-23T18:50:56;98293.81;;;22.05;100.00
33781;BME280;20097;50.832;19.100;2022-07-23T18:56:00;98294.00;;;21.98;100.00
33781;BME280;20097;50.832;19.100;2022-07-23T19:01:04;98309.94;;;21.98;100.00
33781;BME280;20097;50.832;19.100;2022-07-23T19:06:10;98338.19;;;22.04;100.00
33781;BME280;20097;50.832;19.100;2022-07-23T19:11:15;98349.81;;;21.98;100.00
33781;BME280;20097;50.832;19.100;2022-07-23T19:16:19;98351.09;;;21.96;100.00
33781;BME280;20097;50.832;19.100;2022-07-23T19:21:24;98340.94;;;21.93;100.00
33781;BME280;20097;50.832;19.100;2022-07-23T19:26:30;98340.09;;;21.87;100.00
33781;BME280;20097;50.832;19.100;2022-07-23T19:31:34;98342.44;;;21.84;100.00
33781;BME280;20097;50.832;19.100;2022-07-23T19:36:40;98342.19;;;21.85;100.00
33781;BME280;20097;50.832;19.100;2022-07-23T19:41:44;98356.34;;;21.74;100.00
33781;BME280;20097;50.832;19.100;2022-07-23T19:46:49;98362.78;;;21.61;100.00
33781;BME280;20097;50.832;19.100;2022-07-23T19:51:54;98381.78;;;21.53;100.00
33781;BME280;20097;50.832;19.100;2022-07-23T19:56:58;98361.34;;;21.54;100.00
33781;BME280;20097;50.832;19.100;2022-07-23T20:02:03;98360.53;;;21.53;100.00
33781;BME280;20097;50.832;19.100;2022-07-23T20:07:08;98361.81;;;21.51;100.00
33781;BME280;20097;50.832;19.100;2022-07-23T20:12:14;98364.00;;;21.54;100.00
33781;BME280;20097;50.832;19.100;2022-07-23T20:17:18;98357.63;;;21.55;100.00
33781;BME280;20097;50.832;19.100;2022-07-23T20:22:24;98346.47;;;21.53;100.00
33781;BME280;20097;50.832;19.100;2022-07-23T20:27:29;98331.13;;;21.43;100.00
33781;BME280;20097;50.832;19.100;2022-07-23T20:32:33;98337.91;;;21.34;100.00
33781;BME280;20097;50.832;19.100;2022-07-23T20:37:39;98349.34;;;21.35;100.00
33781;BME280;20097;50.832;19.100;2022-07-23T20:42:43;98351.28;;;21.39;100.00
33781;BME280;20097;50.832;19.100;2022-07-23T20:47:48;98347.25;;;21.37;100.00
33781;BME280;20097;50.832;19.100;2022-07-23T20:52:53;98346.22;;;21.38;100.00
33781;BME280;20097;50.832;19.100;2022-07-23T20:57:58;98350.22;;;21.40;100.00
33781;BME280;20097;50.832;19.100;2022-07-23T21:03:02;98361.75;;;21.46;100.00
33781;BME280;20097;50.832;19.100;2022-07-23T21:08:08;98390.94;;;21.29;100.00
33781;BME280;20097;50.832;19.100;2022-07-23T21:13:12;98391.63;;;21.08;100.00
33781;BME280;20097;50.832;19.100;2022-07-23T21:18:18;98398.25;;;20.94;100.00
33781;BME280;20097;50.832;19.100;2022-07-23T21:23:24;98406.00;;;20.84;100.00
33781;BME280;20097;50.832;19.100;2022-07-23T21:28:28;98408.81;;;20.66;100.00
33781;BME280;20097;50.832;19.100;2022-07-23T21:33:33;98406.28;;;20.60;100.00
33781;BME280;20097;50.832;19.100;2022-07-23T21:38:39;98425.69;;;20.49;100.00
33781;BME280;20097;50.832;19.100;2022-07-23T21:43:43;98414.06;;;20.38;100.00
33781;BME280;20097;50.832;19.100;2022-07-23T21:48:47;98425.94;;;20.24;100.00
33781;BME280;20097;50.832;19.100;2022-07-23T21:53:53;98435.28;;;20.15;100.00
33781;BME280;20097;50.832;19.100;2022-07-23T21:58:59;98436.28;;;20.02;100.00
33781;BME280;20097;50.832;19.100;2022-07-23T22:04:04;98436.88;;;19.93;100.00
33781;BME280;20097;50.832;19.100;2022-07-23T22:09:10;98431.09;;;19.84;100.00
33781;BME280;20097;50.832;19.100;2022-07-23T22:14:14;98429.13;;;19.80;100.00
33781;BME280;20097;50.832;19.100;2022-07-23T22:19:19;98432.59;;;19.69;100.00
33781;BME280;20097;50.832;19.100;2022-07-23T22:24:24;98428.31;;;19.56;100.00
33781;BME280;20097;50.832;19.100;2022-07-23T22:29:29;98428.16;;;19.40;100.00
33781;BME280;20097;50.832;19.100;2022-07-23T22:34:33;98427.66;;;19.31;100.00
33781;BME280;20097;50.832;19.100;2022-07-23T22:39:39;98428.69;;;19.30;100.00
33781;BME280;20097;50.832;19.100;2022-07-23T22:44:44;98422.25;;;19.38;100.00
33781;BME280;20097;50.832;19.100;2022-07-23T22:49:48;98416.38;;;19.36;100.00
33781;BME280;20097;50.832;19.100;2022-07-23T22:54:55;98422.41;;;19.43;100.00
33781;BME280;20097;50.832;19.100;2022-07-23T22:59:59;98424.22;;;19.42;100.00
33781;BME280;20097;50.832;19.100;2022-07-23T23:05:04;98423.63;;;19.40;100.00
33781;BME280;20097;50.832;19.100;2022-07-23T23:10:09;98423.22;;;19.43;100.00
33781;BME280;20097;50.832;19.100;2022-07-23T23:15:14;98416.75;;;19.39;100.00
33781;BME280;20097;50.832;19.100;2022-07-23T23:20:18;98421.31;;;19.32;100.00
33781;BME280;20097;50.832;19.100;2022-07-23T23:25:23;98435.59;;;19.31;100.00
33781;BME280;20097;50.832;19.100;2022-07-23T23:30:27;98442.34;;;19.27;100.00
33781;BME280;20097;50.832;19.100;2022-07-23T23:35:31;98451.09;;;19.28;100.00
33781;BME280;20097;50.832;19.100;2022-07-23T23:40:37;98460.06;;;19.27;100.00
33781;BME280;20097;50.832;19.100;2022-07-23T23:45:41;98464.78;;;19.25;100.00
33781;BME280;20097;50.832;19.100;2022-07-23T23:50:45;98461.75;;;19.21;100.00
33781;BME280;20097;50.832;19.100;2022-07-23T23:55:51;98463.81;;;19.19;100.00
